Other Surface Observations
Issued by NWS Great Falls, MT

Home | Current Version | Previous Version | Text Only | Print | Product List | Glossary On
Versions: 1 2 3 4 5 6 7 8 9 10 11 12 13 14 15 16 17 18 19 20 21 22 23 24 25 26 27 28 29 30 31 32 33 34 35 36 37 38 39 40 41 42 43 44 45 46 47 48 49 50
000
SXUS55 KTFX 201908
OSOTFX

AREA AWOS OBSERVATIONS
NATIONAL WEATHER SERVICE GREAT FALLS MT
0106 PM MDT Fri Apr 20 2018

METAR K7S1 201855Z AUTO 32011KT 40SM 15/M06 A3008 RMK A01 T01501055
METAR K97M 201855Z AUTO 11010KT 40SM 13/M02 A3006 RMK A01 T01271022
METAR K97M 201755Z AUTO 10010KT 40SM 12/M03 A3007 RMK A01 T01221027
METAR K9S2 201855Z AUTO 11009KT 40SM 15/01 A3012 RMK A01 T01500011
METAR K9S5 201855Z AUTO 04004KT 40SM 15/M03 A3010 RMK A01 T01501033
METAR KRPX 201755Z AUTO 01009KT 40SM 15/01 A3001 RMK A01 T01500011
METAR KS34 201855Z AUTO 34000KT 40SM 15/M01 A3016 RMK A01 T01501011
METAR KTHM 201755Z AUTO 22000KT 40SM 14/01 A3021 RMK A01 T01380005



USA.gov is the U.S. government's official web portal to all federal, state and local government web resources and services.